Time;durP1;ratioP1;P1;durP2;ratioP2;P2;SDS_P1;SDS_P2;PMS_P1;PMS_P2;Temp;Humidity;BMP_temperature;BMP_pressure;BME280_temperature;BME280_humidity;BME280_pressure;Samples;Min_cycle;Max_cycle;Signal;HPM_P1;HPM_P2
2023/08/20 00:01:39;;;;;;;;;;;;;;;19.89;79.84;95353.72;5133183;28;2658;-57
2023/08/20 00:04:05;;;;;;;;;;;;;;;19.99;78.83;95348.66;5133275;28;2846;-57
2023/08/20 00:06:31;;;;;;;;;;;;;;;19.99;79.07;95350.56;5134130;28;1072;-57
2023/08/20 00:08:57;;;;;;;;;;;;;;;19.91;79.31;95351.63;5134379;28;988;-57
2023/08/20 00:11:23;;;;;;;;;;;;;;;19.47;80.80;95361.31;5132867;28;2818;-57
2023/08/20 00:13:49;;;;;;;;;;;;;;;19.49;81.16;95351.09;5134207;28;1909;-57
2023/08/20 00:16:15;;;;;;;;;;;;;;;19.59;80.77;95348.75;5132949;28;2489;-57
2023/08/20 00:18:41;;;;;;;;;;;;;;;19.73;79.44;95357.75;5116189;28;1044;-57
2023/08/20 00:21:08;;;;;;;;;;;;;;;19.78;80.41;95362.53;5115695;28;1106;-57
2023/08/20 00:23:35;;;;;;;;;;;;;;;19.82;79.27;95356.44;5128001;28;2468;-57
2023/08/20 00:26:02;;;;;;;;;;;;;;;20.01;78.83;95352.00;5113482;28;1055;-57
2023/08/20 00:28:28;;;;;;;;;;;;;;;19.85;80.45;95357.91;5095368;28;1016;-57
2023/08/20 00:30:54;;;;;;;;;;;;;;;19.64;80.28;95361.69;5113575;28;977;-57
2023/08/20 00:33:20;;;;;;;;;;;;;;;19.76;79.87;95354.59;5113624;28;970;-57
2023/08/20 00:35:46;;;;;;;;;;;;;;;19.56;81.50;95359.19;5113579;28;1905;-57
2023/08/20 00:38:12;;;;;;;;;;;;;;;19.29;82.21;95360.09;5095294;28;1072;-57
2023/08/20 00:40:38;;;;;;;;;;;;;;;19.36;82.38;95360.06;5113527;28;1010;-58
2023/08/20 00:43:03;;;;;;;;;;;;;;;19.43;81.69;95362.78;5113664;28;1027;-58
2023/08/20 00:45:30;;;;;;;;;;;;;;;19.58;80.51;95363.38;5113703;28;3074;-58
2023/08/20 00:47:56;;;;;;;;;;;;;;;19.96;78.69;95356.44;5113298;28;1043;-58
2023/08/20 00:50:22;;;;;;;;;;;;;;;20.02;78.80;95353.66;5114041;28;2773;-58
2023/08/20 00:52:48;;;;;;;;;;;;;;;19.67;81.79;95358.53;5116015;28;2800;-58
2023/08/20 00:55:14;;;;;;;;;;;;;;;19.37;82.19;95350.06;5117075;28;1993;-58
2023/08/20 00:57:41;;;;;;;;;;;;;;;19.31;82.31;95357.16;5117029;28;1215;-58
2023/08/20 01:00:08;;;;;;;;;;;;;;;19.44;81.06;95357.13;5116997;28;1036;-58
2023/08/20 01:02:35;;;;;;;;;;;;;;;19.59;80.91;95353.38;5116660;28;1037;-58
2023/08/20 01:05:01;;;;;;;;;;;;;;;19.58;80.95;95360.66;5116523;28;1000;-58
2023/08/20 01:07:30;;;;;;;;;;;;;;;19.52;81.26;95356.09;5116370;28;1622;-58
2023/08/20 01:10:11;;;;;;;;;;;;;;;19.46;81.75;95359.63;5116302;28;1119;-58
2023/08/20 01:12:38;;;;;;;;;;;;;;;19.35;83.04;95363.00;5116339;28;1044;-58
2023/08/20 01:15:04;;;;;;;;;;;;;;;19.46;81.79;95367.78;5116328;28;1905;-58
2023/08/20 01:17:31;;;;;;;;;;;;;;;19.44;82.33;95362.56;5116231;28;1001;-58
2023/08/20 01:19:57;;;;;;;;;;;;;;;19.41;82.69;95367.59;5116072;28;1220;-58
2023/08/20 01:22:38;;;;;;;;;;;;;;;19.24;83.33;95362.59;5116378;28;973;-58
2023/08/20 01:25:08;;;;;;;;;;;;;;;19.13;83.97;95373.25;5116086;28;1052;-58
2023/08/20 01:27:58;;;;;;;;;;;;;;;19.11;84.23;95365.31;5116193;28;1015;-58
2023/08/20 01:30:24;;;;;;;;;;;;;;;19.04;84.32;95361.78;5115905;28;1048;-58
2023/08/20 01:32:51;;;;;;;;;;;;;;;19.17;83.30;95347.38;5116140;28;960;-58
2023/08/20 01:35:17;;;;;;;;;;;;;;;19.03;83.92;95343.88;5115921;28;1913;-58
2023/08/20 01:37:44;;;;;;;;;;;;;;;18.73;84.91;95342.34;5116233;28;969;-57
2023/08/20 01:40:10;;;;;;;;;;;;;;;18.51;86.09;95341.69;5115837;28;953;-58
2023/08/20 01:42:37;;;;;;;;;;;;;;;18.53;86.27;95338.78;5115777;28;1032;-58
2023/08/20 01:45:04;;;;;;;;;;;;;;;18.81;84.63;95345.94;5097658;28;1669;-58
2023/08/20 01:47:30;;;;;;;;;;;;;;;18.72;84.81;95339.84;5115869;28;991;-58
2023/08/20 01:49:56;;;;;;;;;;;;;;;18.65;86.03;95347.16;5119807;27;3238;-58
2023/08/20 01:52:21;;;;;;;;;;;;;;;18.74;85.58;95345.88;5136034;27;1027;-58
2023/08/20 01:54:48;;;;;;;;;;;;;;;18.71;85.27;95349.03;5136094;27;1913;-58
2023/08/20 01:57:14;;;;;;;;;;;;;;;18.69;85.29;95343.81;5135968;27;1055;-58
2023/08/20 01:59:40;;;;;;;;;;;;;;;18.66;85.79;95346.09;5135970;27;985;-58
2023/08/20 02:02:06;;;;;;;;;;;;;;;18.61;85.75;95337.75;5136391;27;1061;-58
2023/08/20 02:04:32;;;;;;;;;;;;;;;18.56;86.00;95332.13;5116586;27;2425;-58
2023/08/20 02:06:58;;;;;;;;;;;;;;;18.67;85.66;95335.06;5135887;27;1109;-58
2023/08/20 02:09:24;;;;;;;;;;;;;;;18.76;85.12;95322.13;5134702;27;3029;-58
2023/08/20 02:11:50;;;;;;;;;;;;;;;18.90;85.27;95331.16;5135842;27;1003;-58
2023/08/20 02:14:17;;;;;;;;;;;;;;;18.91;85.17;95325.53;5135509;27;1901;-59
2023/08/20 02:16:43;;;;;;;;;;;;;;;18.79;85.75;95332.56;5135676;27;1043;-58
2023/08/20 02:19:09;;;;;;;;;;;;;;;18.75;85.60;95325.06;5135486;27;1157;-58
2023/08/20 02:21:36;;;;;;;;;;;;;;;18.80;85.44;95323.44;5135543;27;1048;-58
2023/08/20 02:24:02;;;;;;;;;;;;;;;19.08;82.95;95327.78;5135590;27;1063;-58
2023/08/20 02:26:28;;;;;;;;;;;;;;;19.28;82.16;95331.31;5135686;27;985;-58
2023/08/20 02:28:54;;;;;;;;;;;;;;;19.18;82.57;95336.34;5117169;27;1049;-58
2023/08/20 02:31:20;;;;;;;;;;;;;;;19.15;83.01;95323.19;5135548;27;977;-58
2023/08/20 02:33:45;;;;;;;;;;;;;;;19.09;83.20;95337.59;5135482;27;1081;-58
2023/08/20 02:36:11;;;;;;;;;;;;;;;18.83;84.58;95338.44;5135169;27;1905;-58
2023/08/20 02:38:37;;;;;;;;;;;;;;;18.65;85.28;95336.31;5135513;27;998;-58
2023/08/20 02:41:03;;;;;;;;;;;;;;;18.68;85.67;95344.84;5135268;27;1031;-58
2023/08/20 02:43:29;;;;;;;;;;;;;;;18.80;85.21;95344.22;5135314;27;1051;-58
2023/08/20 02:45:55;;;;;;;;;;;;;;;18.81;85.12;95344.06;5134927;27;1076;-58
2023/08/20 02:48:26;;;;;;;;;;;;;;;18.86;84.71;95351.56;5134968;27;1098;-58
2023/08/20 02:50:53;;;;;;;;;;;;;;;19.05;83.24;95352.63;5134730;27;2975;-58
2023/08/20 02:53:19;;;;;;;;;;;;;;;19.03;83.85;95357.41;5134010;27;2873;-57
2023/08/20 02:55:45;;;;;;;;;;;;;;;19.07;83.40;95359.47;5133609;27;2980;-58
2023/08/20 02:58:11;;;;;;;;;;;;;;;18.94;84.42;95362.19;5135050;27;941;-57
2023/08/20 03:00:38;;;;;;;;;;;;;;;18.70;84.81;95358.19;5135055;27;996;-57
2023/08/20 03:03:07;;;;;;;;;;;;;;;18.82;84.31;95353.00;5135110;27;952;-58
2023/08/20 03:05:33;;;;;;;;;;;;;;;18.81;85.11;95362.19;5115285;27;2433;-57
2023/08/20 03:07:59;;;;;;;;;;;;;;;18.84;85.13;95356.38;5134620;27;1677;-57
2023/08/20 03:10:26;;;;;;;;;;;;;;;18.82;85.07;95359.28;5134591;27;965;-57
2023/08/20 03:12:52;;;;;;;;;;;;;;;18.75;84.77;95361.09;5134612;27;1047;-57
2023/08/20 03:15:17;;;;;;;;;;;;;;;18.90;84.82;95361.78;5134228;27;1988;-57
2023/08/20 03:17:43;;;;;;;;;;;;;;;18.77;85.26;95358.19;5134500;27;1044;-58
2023/08/20 03:20:10;;;;;;;;;;;;;;;18.68;86.02;95369.22;5124543;27;1196;-58
2023/08/20 03:22:36;;;;;;;;;;;;;;;18.68;86.44;95369.22;5114153;28;985;-58
2023/08/20 03:25:03;;;;;;;;;;;;;;;18.43;87.39;95377.09;5113891;28;1079;-58
2023/08/20 03:27:29;;;;;;;;;;;;;;;18.45;87.08;95369.59;5113706;28;1037;-58
2023/08/20 03:29:55;;;;;;;;;;;;;;;18.40;87.68;95360.41;5113821;28;997;-58
2023/08/20 03:32:21;;;;;;;;;;;;;;;18.51;87.12;95352.50;5095787;28;970;-57
2023/08/20 03:34:47;;;;;;;;;;;;;;;18.50;87.03;95358.16;5129992;27;2560;-57
2023/08/20 03:37:13;;;;;;;;;;;;;;;18.67;86.46;95359.44;5132851;27;2552;-57
2023/08/20 03:39:39;;;;;;;;;;;;;;;18.66;86.63;95355.03;5133086;27;2565;-58
2023/08/20 03:42:05;;;;;;;;;;;;;;;18.63;86.93;95360.88;5134152;27;972;-57
2023/08/20 03:44:31;;;;;;;;;;;;;;;18.71;86.33;95357.97;5132976;27;2474;-58
2023/08/20 03:46:57;;;;;;;;;;;;;;;18.84;84.99;95368.03;5115904;28;1036;-56
2023/08/20 03:49:23;;;;;;;;;;;;;;;18.98;83.82;95368.03;5134235;28;1159;-57
2023/08/20 03:51:49;;;;;;;;;;;;;;;19.19;83.78;95369.69;5134288;28;1014;-59
2023/08/20 03:54:15;;;;;;;;;;;;;;;19.00;84.69;95374.91;5133882;28;2015;-59
2023/08/20 03:56:41;;;;;;;;;;;;;;;18.97;85.00;95374.47;5134325;28;1024;-59
2023/08/20 03:59:07;;;;;;;;;;;;;;;18.76;86.50;95370.88;5132969;28;2795;-59
2023/08/20 04:01:33;;;;;;;;;;;;;;;18.95;85.30;95371.16;5133572;28;2236;-58
2023/08/20 04:03:59;;;;;;;;;;;;;;;18.97;85.36;95371.75;5111700;28;2820;-59
2023/08/20 04:06:25;;;;;;;;;;;;;;;18.63;88.07;95373.56;5113675;28;1014;-59
2023/08/20 04:08:51;;;;;;;;;;;;;;;18.62;87.48;95370.03;5112591;28;960;-58
2023/08/20 04:11:17;;;;;;;;;;;;;;;18.89;85.60;95370.97;5113572;28;1036;-58
2023/08/20 04:13:44;;;;;;;;;;;;;;;19.11;84.47;95371.56;5113620;28;999;-59
2023/08/20 04:16:11;;;;;;;;;;;;;;;19.31;83.89;95366.16;5112065;28;1910;-59
2023/08/20 04:18:37;;;;;;;;;;;;;;;19.29;85.52;95367.38;5121560;28;2453;-59
2023/08/20 04:21:02;;;;;;;;;;;;;;;19.13;85.98;95373.25;5133822;28;1192;-59
2023/08/20 04:23:28;;;;;;;;;;;;;;;19.38;84.74;95368.81;5133482;28;1049;-58
2023/08/20 04:25:54;;;;;;;;;;;;;;;19.46;84.13;95374.06;5115374;28;1444;-58
2023/08/20 04:28:20;;;;;;;;;;;;;;;19.54;84.52;95374.84;5117106;28;957;-59
2023/08/20 04:30:46;;;;;;;;;;;;;;;19.51;85.50;95376.13;5117397;28;1865;-59
2023/08/20 04:33:12;;;;;;;;;;;;;;;19.45;85.33;95376.97;5117453;28;1106;-58
2023/08/20 04:35:38;;;;;;;;;;;;;;;19.62;83.77;95380.91;5117208;28;1976;-59
2023/08/20 04:38:04;;;;;;;;;;;;;;;19.68;84.00;95369.19;5117278;28;1040;-59
2023/08/20 04:40:30;;;;;;;;;;;;;;;19.69;84.39;95365.44;5117380;28;1056;-58
2023/08/20 04:42:56;;;;;;;;;;;;;;;19.63;83.51;95370.88;5117205;28;1072;-59
2023/08/20 04:45:22;;;;;;;;;;;;;;;19.46;86.31;95381.34;5117092;28;1223;-59
2023/08/20 04:47:48;;;;;;;;;;;;;;;19.46;85.33;95373.19;5124169;27;2463;-59
2023/08/20 04:50:14;;;;;;;;;;;;;;;19.60;84.95;95372.13;5137779;27;971;-58
2023/08/20 04:52:40;;;;;;;;;;;;;;;19.74;85.00;95381.09;5137563;27;1107;-59
2023/08/20 04:55:07;;;;;;;;;;;;;;;19.74;85.41;95370.25;5137750;27;1918;-59
2023/08/20 04:57:33;;;;;;;;;;;;;;;19.88;85.51;95373.75;5137666;27;933;-59
2023/08/20 04:59:59;;;;;;;;;;;;;;;19.86;85.61;95375.84;5137413;27;1032;-58
2023/08/20 05:02:25;;;;;;;;;;;;;;;19.87;86.44;95372.94;5137309;27;1084;-59
2023/08/20 05:04:51;;;;;;;;;;;;;;;19.78;87.39;95373.38;5137349;27;1071;-58
2023/08/20 05:07:17;;;;;;;;;;;;;;;19.64;88.13;95377.97;5137531;27;992;-59
2023/08/20 05:09:43;;;;;;;;;;;;;;;19.58;87.30;95376.09;5137514;27;1048;-58
2023/08/20 05:12:09;;;;;;;;;;;;;;;20.01;84.43;95379.13;5137145;27;1047;-57
2023/08/20 05:14:35;;;;;;;;;;;;;;;19.89;86.35;95384.41;5137220;27;1978;-57
2023/08/20 05:17:02;;;;;;;;;;;;;;;19.86;86.33;95375.84;5137281;27;989;-57
2023/08/20 05:19:28;;;;;;;;;;;;;;;19.98;85.33;95378.75;5136850;27;1177;-57
2023/08/20 05:21:56;;;;;;;;;;;;;;;20.09;86.51;95380.78;5118774;27;1032;-58
2023/08/20 05:24:22;;;;;;;;;;;;;;;20.01;87.19;95383.72;5136876;27;1186;-58
2023/08/20 05:27:03;;;;;;;;;;;;;;;20.20;85.38;95387.41;5137168;27;984;-57
2023/08/20 05:29:29;;;;;;;;;;;;;;;20.24;85.33;95385.94;5118898;27;942;-58
2023/08/20 05:31:54;;;;;;;;;;;;;;;20.09;86.73;95380.78;5137115;27;1022;-57
2023/08/20 05:34:21;;;;;;;;;;;;;;;19.96;86.91;95380.84;5136869;27;1906;-58
2023/08/20 05:36:46;;;;;;;;;;;;;;;20.13;85.27;95386.59;5136679;27;1067;-58
2023/08/20 05:39:12;;;;;;;;;;;;;;;20.31;85.75;95385.91;5136154;27;1012;-58
2023/08/20 05:41:38;;;;;;;;;;;;;;;20.45;86.88;95385.63;5118416;27;1107;-57
2023/08/20 05:44:04;;;;;;;;;;;;;;;20.92;83.52;95389.97;5136743;27;1032;-56
2023/08/20 05:46:31;;;;;;;;;;;;;;;21.15;85.92;95390.22;5135872;27;1281;-58
2023/08/20 05:48:57;;;;;;;;;;;;;;;21.28;84.42;95397.41;5136590;27;1006;-58
2023/08/20 05:51:23;;;;;;;;;;;;;;;21.30;82.15;95391.78;5136524;27;1055;-58
2023/08/20 05:53:49;;;;;;;;;;;;;;;21.73;80.54;95397.25;5136344;27;991;-57
2023/08/20 05:56:15;;;;;;;;;;;;;;;22.35;76.92;95391.78;5136225;27;1902;-58
2023/08/20 05:58:41;;;;;;;;;;;;;;;22.84;73.94;95391.75;5136482;27;976;-58
2023/08/20 06:01:07;;;;;;;;;;;;;;;23.30;72.33;95389.38;5136303;27;1039;-58
2023/08/20 06:03:33;;;;;;;;;;;;;;;23.69;71.00;95387.84;5136235;27;988;-57
2023/08/20 06:05:59;;;;;;;;;;;;;;;23.83;70.61;95385.75;5136257;27;1040;-58
2023/08/20 06:08:25;;;;;;;;;;;;;;;24.00;69.15;95382.28;5135923;27;1056;-57
2023/08/20 06:10:51;;;;;;;;;;;;;;;24.10;69.26;95383.34;5136281;27;1004;-57
2023/08/20 06:13:17;;;;;;;;;;;;;;;24.42;68.41;95382.91;5136138;27;995;-57
2023/08/20 06:15:43;;;;;;;;;;;;;;;24.58;67.44;95385.97;5136070;27;1901;-56
2023/08/20 06:18:09;;;;;;;;;;;;;;;24.53;68.40;95381.25;5135771;27;973;-56
2023/08/20 06:20:35;;;;;;;;;;;;;;;24.53;67.21;95384.81;5135694;27;1173;-56
2023/08/20 06:23:01;;;;;;;;;;;;;;;24.69;66.56;95383.19;5135737;27;961;-56
2023/08/20 06:25:27;;;;;;;;;;;;;;;24.82;66.79;95389.44;5135912;27;1047;-57
2023/08/20 06:27:53;;;;;;;;;;;;;;;24.71;67.35;95378.28;5135844;27;1210;-56
2023/08/20 06:30:19;;;;;;;;;;;;;;;24.68;68.86;95384.28;5135272;27;1102;-56
2023/08/20 06:32:45;;;;;;;;;;;;;;;24.64;68.54;95379.53;5135381;27;977;-56
2023/08/20 06:35:11;;;;;;;;;;;;;;;24.55;66.73;95385.38;5135283;27;1925;-56
2023/08/20 06:37:40;;;;;;;;;;;;;;;24.52;66.27;95379.56;5135291;27;1044;-55
2023/08/20 06:40:07;;;;;;;;;;;;;;;24.69;66.85;95388.66;5135347;27;1032;-56
2023/08/20 06:42:33;;;;;;;;;;;;;;;24.91;67.52;95387.97;5135438;27;1032;-56
2023/08/20 06:44:59;;;;;;;;;;;;;;;24.92;63.90;95390.44;5135213;27;1324;-56
2023/08/20 06:47:25;;;;;;;;;;;;;;;25.01;64.24;95387.31;5135209;27;980;-56
2023/08/20 06:49:51;;;;;;;;;;;;;;;25.09;64.45;95392.38;5134480;27;1962;-55
2023/08/20 06:52:17;;;;;;;;;;;;;;;25.08;64.29;95387.97;5134935;27;1157;-55
2023/08/20 06:54:44;;;;;;;;;;;;;;;25.30;63.90;95391.69;5135241;27;1987;-56
2023/08/20 06:57:11;;;;;;;;;;;;;;;25.36;63.86;95387.13;5135012;27;1021;-56
2023/08/20 06:59:36;;;;;;;;;;;;;;;25.32;63.34;95386.78;5134981;27;1079;-55
2023/08/20 07:02:03;;;;;;;;;;;;;;;25.35;63.64;95392.88;5135040;27;1020;-55
2023/08/20 07:04:29;;;;;;;;;;;;;;;25.39;63.58;95394.03;5116823;27;1041;-56
2023/08/20 07:06:55;;;;;;;;;;;;;;;25.64;63.37;95396.34;5134952;27;1055;-56
2023/08/20 07:09:21;;;;;;;;;;;;;;;25.68;61.94;95398.31;5134810;27;1028;-56
2023/08/20 07:11:47;;;;;;;;;;;;;;;25.73;62.14;95399.50;5135053;27;1045;-58
2023/08/20 07:14:13;;;;;;;;;;;;;;;25.77;62.28;95395.19;5134692;27;1993;-57
2023/08/20 07:16:39;;;;;;;;;;;;;;;25.84;61.95;95396.66;5135337;27;1012;-57
2023/08/20 07:19:05;;;;;;;;;;;;;;;25.95;61.21;95391.34;5134766;27;1212;-57
2023/08/20 07:21:31;;;;;;;;;;;;;;;26.09;62.08;95389.91;5134621;27;1004;-56
2023/08/20 07:23:57;;;;;;;;;;;;;;;26.13;60.39;95393.81;5134796;27;987;-55
2023/08/20 07:26:23;;;;;;;;;;;;;;;26.08;60.45;95389.06;5134756;27;1051;-56
2023/08/20 07:28:58;;;;;;;;;;;;;;;26.05;59.56;95392.31;5134633;27;996;-56
2023/08/20 07:31:24;;;;;;;;;;;;;;;26.10;59.75;95394.28;5134513;27;1028;-56
2023/08/20 07:33:51;;;;;;;;;;;;;;;26.25;59.26;95388.19;5116313;28;957;-55
2023/08/20 07:36:17;;;;;;;;;;;;;;;26.74;57.57;95393.75;5134176;27;1981;-56
2023/08/20 07:38:43;;;;;;;;;;;;;;;27.20;55.11;95385.16;5134411;27;1012;-56
2023/08/20 07:41:10;;;;;;;;;;;;;;;27.64;53.69;95387.75;5134333;27;1135;-56
2023/08/20 07:43:37;;;;;;;;;;;;;;;28.03;53.35;95391.06;5134473;27;987;-56
2023/08/20 07:46:03;;;;;;;;;;;;;;;27.83;53.32;95388.16;5134211;27;1230;-56
2023/08/20 07:48:29;;;;;;;;;;;;;;;27.97;50.14;95391.31;5134136;28;1035;-56
2023/08/20 07:50:55;;;;;;;;;;;;;;;28.23;52.06;95382.13;5134180;28;1035;-56
2023/08/20 07:53:21;;;;;;;;;;;;;;;28.23;52.23;95370.31;5134094;28;1048;-56
2023/08/20 07:55:47;;;;;;;;;;;;;;;28.26;51.42;95374.44;5134296;28;1917;-55
2023/08/20 07:58:13;;;;;;;;;;;;;;;28.22;52.96;95377.72;5134218;28;972;-56
2023/08/20 08:00:39;;;;;;;;;;;;;;;28.45;51.22;95372.06;5134799;27;1051;-55
2023/08/20 08:03:05;;;;;;;;;;;;;;;28.21;51.05;95375.22;5138438;27;1126;-56
2023/08/20 08:05:31;;;;;;;;;;;;;;;28.02;50.11;95374.84;5138213;27;1032;-56
2023/08/20 08:07:57;;;;;;;;;;;;;;;28.09;49.84;95380.94;5138517;27;1048;-56
2023/08/20 08:10:23;;;;;;;;;;;;;;;28.02;52.92;95381.19;5138256;27;1075;-57
2023/08/20 08:12:49;;;;;;;;;;;;;;;27.87;53.13;95380.22;5138457;27;1028;-57
2023/08/20 08:15:15;;;;;;;;;;;;;;;27.84;52.88;95370.59;5138128;27;1918;-57
2023/08/20 08:17:41;;;;;;;;;;;;;;;27.65;53.01;95378.44;5138151;27;1103;-56
2023/08/20 08:20:07;;;;;;;;;;;;;;;27.58;53.80;95369.59;5128613;27;1169;-57
2023/08/20 08:22:33;;;;;;;;;;;;;;;27.76;51.64;95376.59;5117823;28;1047;-56
2023/08/20 08:24:59;;;;;;;;;;;;;;;27.73;51.79;95382.63;5117804;28;965;-56
2023/08/20 08:27:25;;;;;;;;;;;;;;;27.51;52.36;95368.97;5117332;28;1158;-57
2023/08/20 08:29:51;;;;;;;;;;;;;;;27.40;54.51;95377.16;5117357;28;1024;-56
2023/08/20 08:32:17;;;;;;;;;;;;;;;27.27;53.11;95375.66;5117270;28;1044;-57
2023/08/20 08:34:43;;;;;;;;;;;;;;;27.35;53.89;95371.59;5117115;28;1993;-57
2023/08/20 08:37:09;;;;;;;;;;;;;;;27.65;54.26;95373.75;5117216;28;1083;-56
2023/08/20 08:39:35;;;;;;;;;;;;;;;28.10;51.03;95377.13;5117380;28;1072;-56
2023/08/20 08:42:05;;;;;;;;;;;;;;;28.48;49.80;95369.59;5117213;28;1111;-56
2023/08/20 08:44:34;;;;;;;;;;;;;;;28.92;49.28;95374.72;5116999;28;1092;-57
2023/08/20 08:47:01;;;;;;;;;;;;;;;29.07;48.32;95364.84;5117081;28;941;-58
2023/08/20 08:49:29;;;;;;;;;;;;;;;29.23;45.85;95371.22;5116916;28;996;-57
2023/08/20 08:51:56;;;;;;;;;;;;;;;29.35;47.20;95363.53;5117199;28;1007;-57
2023/08/20 08:54:23;;;;;;;;;;;;;;;29.43;46.15;95367.66;5116786;28;1913;-57
2023/08/20 08:56:49;;;;;;;;;;;;;;;29.54;47.06;95366.56;5116832;28;906;-57
2023/08/20 08:59:15;;;;;;;;;;;;;;;29.58;46.40;95371.22;5116766;28;1064;-57
2023/08/20 09:01:41;;;;;;;;;;;;;;;29.69;45.20;95369.31;5116676;28;990;-57
2023/08/20 09:04:07;;;;;;;;;;;;;;;29.74;45.50;95365.72;5116950;28;1087;-57
2023/08/20 09:06:53;;;;;;;;;;;;;;;29.80;45.69;95369.31;5116557;28;1052;-57
2023/08/20 09:09:20;;;;;;;;;;;;;;;29.93;44.98;95368.72;5116669;28;1040;-57
2023/08/20 09:11:47;;;;;;;;;;;;;;;29.86;41.94;95365.44;5116547;28;1106;-56
2023/08/20 09:14:23;;;;;;;;;;;;;;;29.81;44.57;95365.47;5115700;28;1917;-57
2023/08/20 09:16:59;;;;;;;;;;;;;;;29.93;42.77;95365.97;5116477;28;1091;-57
2023/08/20 09:19:28;;;;;;;;;;;;;;;30.01;42.79;95368.16;5119817;27;1244;-57
2023/08/20 09:21:55;;;;;;;;;;;;;;;30.16;43.54;95365.38;5137077;27;1060;-57
2023/08/20 09:24:38;;;;;;;;;;;;;;;30.22;43.49;95359.84;5136826;27;1051;-57
2023/08/20 09:27:05;;;;;;;;;;;;;;;30.31;44.87;95353.47;5136817;27;965;-57
2023/08/20 09:29:33;;;;;;;;;;;;;;;30.32;44.76;95357.91;5136924;27;1041;-57
2023/08/20 09:32:05;;;;;;;;;;;;;;;30.20;44.90;95362.88;5136920;27;995;-58
2023/08/20 09:34:38;;;;;;;;;;;;;;;29.79;44.19;95357.47;5136641;27;1909;-57
2023/08/20 09:37:07;;;;;;;;;;;;;;;29.56;46.41;95353.34;5136616;27;1095;-57
2023/08/20 09:39:33;;;;;;;;;;;;;;;29.29;45.59;95354.44;5136333;27;1110;-57
2023/08/20 09:41:59;;;;;;;;;;;;;;;29.20;45.96;95354.16;5136824;27;1040;-56
2023/08/20 09:44:28;;;;;;;;;;;;;;;29.24;45.05;95356.34;5118114;27;1237;-58
2023/08/20 09:46:54;;;;;;;;;;;;;;;29.49;45.59;95350.03;5136330;27;1040;-57
2023/08/20 09:49:21;;;;;;;;;;;;;;;29.46;43.73;95347.81;5136325;27;1248;-57
2023/08/20 09:51:50;;;;;;;;;;;;;;;29.29;45.07;95354.44;5136155;27;1028;-59
2023/08/20 09:54:31;;;;;;;;;;;;;;;29.17;44.13;95351.94;5135712;27;2032;-58
2023/08/20 09:57:00;;;;;;;;;;;;;;;29.17;45.11;95351.09;5131261;27;1332;-58
2023/08/20 09:59:26;;;;;;;;;;;;;;;29.53;44.68;95340.91;5127251;27;1660;-58
2023/08/20 10:01:53;;;;;;;;;;;;;;;29.95;42.52;95361.81;5136146;27;1036;-58
2023/08/20 10:04:20;;;;;;;;;;;;;;;30.26;41.64;95355.41;5134999;27;1432;-58
2023/08/20 10:06:47;;;;;;;;;;;;;;;30.49;42.41;95357.56;5136178;27;965;-59
2023/08/20 10:09:14;;;;;;;;;;;;;;;30.72;41.77;95353.31;5126962;27;1389;-62
2023/08/20 10:11:40;;;;;;;;;;;;;;;30.94;42.42;95350.19;5125555;27;1601;-59
2023/08/20 10:14:06;;;;;;;;;;;;;;;30.98;41.38;95347.69;5126509;27;1613;-58
2023/08/20 10:16:35;;;;;;;;;;;;;;;31.12;41.45;95345.09;5124368;27;1905;-59
2023/08/20 10:19:02;;;;;;;;;;;;;;;31.17;41.83;95345.09;5125092;27;1285;-58
2023/08/20 10:21:28;;;;;;;;;;;;;;;31.08;38.54;95357.84;5126464;27;1350;-58
2023/08/20 10:23:54;;;;;;;;;;;;;;;30.80;41.38;95353.84;5129442;27;2157;-59
2023/08/20 10:26:21;;;;;;;;;;;;;;;30.64;41.25;95353.06;5135316;27;1036;-60
2023/08/20 10:28:47;;;;;;;;;;;;;;;30.57;42.61;95339.59;5135682;27;1055;-60
2023/08/20 10:31:16;;;;;;;;;;;;;;;30.42;40.73;95350.72;5135716;27;1043;-60
2023/08/20 10:33:46;;;;;;;;;;;;;;;30.18;39.91;95354.06;5135688;27;999;-60
2023/08/20 10:36:15;;;;;;;;;;;;;;;30.14;40.85;95348.28;5135708;27;1993;-60
2023/08/20 10:38:41;;;;;;;;;;;;;;;30.23;40.24;95340.25;5135555;27;1055;-60
2023/08/20 10:41:08;;;;;;;;;;;;;;;30.32;40.05;95344.13;5135641;27;1035;-59
2023/08/20 10:43:38;;;;;;;;;;;;;;;30.17;38.98;95346.91;5135463;27;1029;-60
2023/08/20 10:46:04;;;;;;;;;;;;;;;30.12;39.03;95347.72;5135357;27;1230;-61
2023/08/20 10:48:36;;;;;;;;;;;;;;;30.19;39.31;95341.94;5135122;27;1056;-59
2023/08/20 10:51:15;;;;;;;;;;;;;;;30.26;39.23;95334.19;5135216;27;1036;-61
2023/08/20 10:53:42;;;;;;;;;;;;;;;30.45;40.33;95339.94;5135202;27;1028;-61
2023/08/20 10:56:08;;;;;;;;;;;;;;;30.55;42.00;95328.84;5116881;27;1981;-61
2023/08/20 10:58:34;;;;;;;;;;;;;;;30.82;41.07;95327.59;5134810;27;1107;-59
2023/08/20 11:01:15;;;;;;;;;;;;;;;31.02;41.21;95323.06;5134779;27;1087;-61
2023/08/20 11:03:42;;;;;;;;;;;;;;;31.20;38.83;95322.41;5116820;27;1115;-59
2023/08/20 11:06:08;;;;;;;;;;;;;;;31.31;39.80;95326.72;5135154;27;969;-57
2023/08/20 11:08:34;;;;;;;;;;;;;;;31.46;40.13;95322.19;5134982;27;1052;-56
2023/08/20 11:11:00;;;;;;;;;;;;;;;31.57;39.23;95322.94;5134955;27;985;-56
2023/08/20 11:13:26;;;;;;;;;;;;;;;31.68;37.48;95318.97;5134860;27;980;-58
2023/08/20 11:15:52;;;;;;;;;;;;;;;31.78;38.15;95318.03;5116829;27;2002;-59
2023/08/20 11:18:18;;;;;;;;;;;;;;;31.77;37.13;95316.41;5134949;27;1032;-58
2023/08/20 11:20:44;;;;;;;;;;;;;;;31.81;38.54;95318.28;5120076;27;1244;-58
2023/08/20 11:23:12;;;;;;;;;;;;;;;31.81;38.86;95307.22;5113889;28;1060;-57
2023/08/20 11:25:42;;;;;;;;;;;;;;;31.85;36.94;95321.31;5114273;28;1068;-60
2023/08/20 11:28:08;;;;;;;;;;;;;;;31.90;37.03;95313.78;5114166;28;1114;-60
2023/08/20 11:30:34;;;;;;;;;;;;;;;31.74;36.21;95315.06;5114273;28;1012;-60
2023/08/20 11:33:00;;;;;;;;;;;;;;;31.64;37.34;95313.19;5096275;28;987;-59
2023/08/20 11:35:26;;;;;;;;;;;;;;;31.62;36.35;95309.09;5113680;28;1978;-60
2023/08/20 11:37:52;;;;;;;;;;;;;;;31.70;36.21;95311.22;5114174;28;973;-59
2023/08/20 11:40:21;;;;;;;;;;;;;;;31.87;35.93;95308.00;5113997;28;989;-58
2023/08/20 11:42:48;;;;;;;;;;;;;;;31.94;35.04;95304.91;5114045;28;1040;-56
2023/08/20 11:45:14;;;;;;;;;;;;;;;31.82;37.75;95302.56;5113782;28;1075;-60
2023/08/20 11:47:42;;;;;;;;;;;;;;;31.60;36.47;95311.31;5113792;28;1159;-58
2023/08/20 11:50:09;;;;;;;;;;;;;;;31.60;35.87;95303.03;5113995;28;1272;-58
2023/08/20 11:52:36;;;;;;;;;;;;;;;31.77;35.97;95299.84;5113857;28;1020;-57
2023/08/20 11:55:03;;;;;;;;;;;;;;;31.85;34.82;95304.72;5095570;28;1914;-58
2023/08/20 11:57:29;;;;;;;;;;;;;;;31.95;35.92;95301.84;5113611;28;1025;-59
2023/08/20 11:59:59;;;;;;;;;;;;;;;32.00;34.59;95298.19;5113940;28;962;-58
2023/08/20 12:02:27;;;;;;;;;;;;;;;32.01;34.71;95297.09;5113636;28;1044;-58
2023/08/20 12:04:55;;;;;;;;;;;;;;;31.96;33.55;95297.97;5095852;28;973;-58
2023/08/20 12:07:24;;;;;;;;;;;;;;;31.92;35.32;95288.59;5113721;28;934;-58
2023/08/20 12:09:50;;;;;;;;;;;;;;;31.89;35.64;95281.72;5113725;28;1036;-59
2023/08/20 12:12:18;;;;;;;;;;;;;;;31.93;35.39;95281.97;5113478;28;1060;-59
2023/08/20 12:14:44;;;;;;;;;;;;;;;32.06;34.36;95289.59;5113566;28;1918;-59
2023/08/20 12:17:10;;;;;;;;;;;;;;;32.20;35.16;95272.28;5113690;28;1004;-59
2023/08/20 12:19:36;;;;;;;;;;;;;;;32.29;33.97;95270.50;5118599;28;1174;-58
2023/08/20 12:22:03;;;;;;;;;;;;;;;32.36;33.53;95276.50;5130723;28;1402;-57
2023/08/20 12:24:29;;;;;;;;;;;;;;;32.32;35.21;95264.38;5133970;28;1043;-58
2023/08/20 12:26:55;;;;;;;;;;;;;;;32.22;35.02;95268.09;5134068;28;1155;-59
2023/08/20 12:29:21;;;;;;;;;;;;;;;32.03;35.34;95265.28;5134208;28;1064;-58
2023/08/20 12:31:47;;;;;;;;;;;;;;;32.01;36.07;95267.50;5134106;28;1060;-56
2023/08/20 12:34:13;;;;;;;;;;;;;;;32.10;34.96;95264.94;5133808;28;1024;-58
2023/08/20 12:36:39;;;;;;;;;;;;;;;32.15;35.48;95266.81;5133853;28;1977;-57
2023/08/20 12:39:06;;;;;;;;;;;;;;;32.12;34.79;95270.16;5133910;28;965;-57
2023/08/20 12:41:32;;;;;;;;;;;;;;;32.17;34.19;95270.09;5133659;28;965;-56
2023/08/20 12:43:58;;;;;;;;;;;;;;;32.16;34.92;95269.28;5134035;28;1008;-56
2023/08/20 12:46:24;;;;;;;;;;;;;;;32.18;34.85;95272.56;5133666;28;1840;-57
2023/08/20 12:48:50;;;;;;;;;;;;;;;32.32;36.81;95258.84;5136360;27;1032;-59
2023/08/20 12:51:17;;;;;;;;;;;;;;;32.21;35.30;95262.84;5137645;27;1102;-58
2023/08/20 12:53:43;;;;;;;;;;;;;;;32.15;35.59;95259.31;5135956;27;2494;-58
2023/08/20 12:56:10;;;;;;;;;;;;;;;32.10;35.43;95259.41;5137471;27;1905;-57
2023/08/20 12:58:38;;;;;;;;;;;;;;;32.01;35.20;95253.66;5137840;27;1103;-58